Inhaltsbereich

METAR / TAF

Die METAR- und TAF-Liste ist aus technischen Gründen (Verfügbarkeit, Update-Zyklen) nicht für ein Meteo-Briefing gedacht. Benutzen Sie stattdessen skybriefing der Skyguide  oder das TAMSI (MeteoSchweiz-eigene Meteo Selfbriefing-Plattform für Firmen aus der Aviatik; Anfragen über das

Kontaktformular

METAR Schweiz

METAR     LFSB 141930Z AUTO 31005KT 9999 FEW054 SCT070 BKN092 04/M01
               Q1026 NOSIG=
METAR     LSGC 141920Z AUTO 04008KT CAVOK M01/M04 Q1022=
METAR     LSGC 141950Z AUTO 03009KT 9999 NCD M01/M04 Q1022=
METAR     LSGG 141920Z 02007KT 9999 FEW065 06/M07 Q1023 NOSIG=
METAR     LSGG 141950Z 02007KT CAVOK 05/M07 Q1023 NOSIG=
METAR     LSGS 141920Z AUTO 26010KT 9999 FEW090 07/M04 Q1021=
METAR     LSGS 141950Z AUTO 26010KT 9999 OVC085 07/M03 Q1021=
METAR RRA LSMA 141920Z AUTO 03010KT 9999NDV FEW046 OVC055 06/M05
               Q1024 RMK=
METAR     LSMA 141950Z NIL=
METAR RRA LSMD 141920Z AUTO 05006KT 010V100 9999NDV FEW044 BKN100
               03/M02 Q1025 RMK=
METAR     LSMD 141950Z NIL=
METAR RRA LSME 141920Z AUTO 04002KT 9999NDV BKN100 02/M03 Q1025 RMK=
METAR     LSME 141950Z NIL=
METAR RRA LSMM 141920Z AUTO 14006KT 050V190 9999NDV BKN052 OVC075
               05/M05 Q1023 RMK=
METAR     LSMM 141950Z NIL=
METAR     LSMP 141920Z NIL=
METAR     LSMP 141950Z 04005KT CAVOK 02/M03 Q1024 RMK BLU=
METAR     LSZA 141920Z AUTO 18003KT 140V200 9999 BKN065 10/M02 Q1020=
METAR     LSZA 141950Z AUTO VRB02KT 9999 OVC065 10/M02 Q1021=
METAR     LSZB 141920Z AUTO VRB02KT 9999 FEW060 SCT070 04/M06 Q1024=
METAR     LSZB 141950Z AUTO VRB03KT 9999 NCD 04/M05 Q1024=
METAR     LSZC 141920Z AUTO VRB03KT 9999 FEW055 BKN070 06/M05 Q1024=
METAR     LSZC 141950Z AUTO 33006KT 9999 BKN049 BKN055 05/M03 Q1024=
METAR     LSZG 141920Z AUTO 05004KT 010V100 CAVOK 03/M03 Q1024=
METAR     LSZG 141950Z AUTO 05006KT CAVOK 03/M02 Q1025=
METAR     LSZH 141920Z 06004KT 020V090 9999 FEW038 04/M03 Q1025
               NOSIG=
METAR     LSZH 141950Z VRB01KT 9999 FEW050 03/M03 Q1025 NOSIG=
METAR RRA LSZL 141920Z AUTO 28006KT 210V350 9999NDV FEW053 BKN067
               11/M01 Q1020 RMK=
METAR     LSZL 141950Z NIL=
METAR     LSZR 141920Z AUTO 04006KT 360V070 9999 BKN046 06/M02 Q1025=
METAR     LSZR 141950Z AUTO 04008KT 010V080 9999 BKN050 05/M02 Q1025=
METAR     LSZS 141920Z AUTO 06008KT 340V090 9999 FEW060 M04/M10
               Q1017=
METAR     LSZS 141950Z AUTO 03007KT 350V070 9999 BKN043 M04/M10
               Q1018=
Aktualisiert am Mittwoch, 14. April 2021, 22:03 Uhr

TAF Schweiz

TAF     LFSB 141700Z 1418/1518 36005KT 9999 FEW040 BKN060 PROB40
             TEMPO 1504/1507 BKN007 TEMPO 1510/1517 -SHRA FEW030TCU
             BKN050 PROB30 TEMPO 1511/1516 36015G25KT SHRA FEW030CB
             BKN040=
TAF     LSGC 141425Z 1415/1424 05010KT 9999 BKN040 BECMG 1418/1420
             VRB02KT CAVOK=
TAF     LSGG 141725Z 1418/1524 04015KT 9999 FEW060 TX10/1515Z
             TN00/1505Z BECMG 1419/1421 04005KT BECMG 1510/1512
             04015KT=
TAF     LSGS 141425Z 1415/1424 25015KT 9999 FEW080 BECMG 1418/1420
             VRB02KT CAVOK=
TAF     LSMA 141625Z 1417/1523 06008KT 9999 FEW065 BKN080 TEMPO
             1417/1503 4000 SHSN SCT030TCU PROB30 1423/1506 BKN014
             PROB40 1512/1518 4500 SHRASN SCT050TCU=
TAF     LSMD 141625Z 1417/1523 06009KT 9999 SCT060 PROB30 TEMPO
             1421/1503 4500 SHSN PROB30 TEMPO 1512/1518 4000 SHRASN
             SCT050TCU=
TAF     LSME 141625Z 1417/1523 09006KT 9999 BKN070 PROB30 TEMPO
             1418/1503 4500 SHSN SCT040TCU PROB40 1512/1518 4500
             SHRASN SCT050TCU=
TAF     LSMM 141625Z 1417/1523 07006KT 9999 SCT060 PROB30 TEMPO
             1418/1503 4500 SHSN PROB30 TEMPO 1512/1518 4000 SHSN
             SCT050TCU=
TAF     LSMP 141625Z 1417/1523 05010KT 9999 SCT060 BECMG 1417/1421
             VRB02KT CAVOK BECMG 1510/1512 05010KT=
TAF     LSZA 141425Z 1415/1424 20007KT 9999 SCT090 PROB40 TEMPO
             1416/1424 SHRA SCT050TCU=
TAF     LSZB 141425Z 1415/1424 06007KT 9999 FEW055 BKN065 PROB40
             1421/1424 CAVOK=
TAF     LSZC 141425Z 1415/1424 08006KT 9999 BKN050 PROB40 TEMPO
             1415/1421 4000 SHRASN SCT050TCU=
TAF     LSZG 141425Z 1415/1424 08013KT 9999 SCT060 TEMPO 1415/1418
             04015G25KT PROB30 1415/1424 4000 SHRASN SCT045TCU BKN060
             BECMG 1418/1421 08003KT=
TAF     LSZH 141725Z 1418/1524 02011KT 9999 FEW065 TX09/1514Z
             TNM01/1504Z BECMG 1418/1421 03005KT PROB30 TEMPO
             1421/1504 4000 -SHSN BKN014 BECMG 1500/1503 VRB02KT
             BECMG 1507/1510 05010KT PROB40 TEMPO 1511/1517
             04012G25KT PROB30 1511/1516 4000 SHSNGS SCT050TCU BECMG
             1518/1521 04005KT BECMG 1521/1524 VRB03KT CAVOK=
TAF     LSZL 141725Z 1418/1503 VRB02KT 9999 SCT090 PROB40 TEMPO
             1418/1503 4000 SHRA SCT050TCU PROB30 TEMPO 1420/1424
             2000 TSRA SCT040CB=
TAF     LSZR 141425Z 1415/1424 02007KT 9999 SCT080 PROB30 1416/1422
             4000 SHSNGS SCT050TCU=
TAF     LSZS 141425Z 1415/1424 VRB05KT CAVOK TX00/1415Z BECMG
             1415/1418 9999 FEW060 PROB30 TEMPO 1421/1424 4500 -SN
             BKN014=
Aktualisiert am Mittwoch, 14. April 2021, 21:10 Uhr